createdAt,value
2018-02-05T00:01:06.282Z,2.60
2018-02-05T00:03:34.623Z,2.50
2018-02-05T00:06:02.950Z,2.60
2018-02-05T00:08:31.303Z,2.60
2018-02-05T00:10:59.650Z,2.70
2018-02-05T00:13:27.970Z,2.80
2018-02-05T00:15:56.281Z,2.80
2018-02-05T00:18:24.599Z,2.90
2018-02-05T00:20:52.936Z,3.00
2018-02-05T00:23:21.272Z,3.00
2018-02-05T00:25:49.568Z,3.00
2018-02-05T00:28:17.905Z,3.00
2018-02-05T00:30:47.035Z,3.00
2018-02-05T00:33:15.471Z,3.00
2018-02-05T00:35:44.575Z,3.00
2018-02-05T00:38:13.672Z,3.00
2018-02-05T00:40:42.875Z,3.00
2018-02-05T00:43:11.183Z,2.90
2018-02-05T00:45:39.504Z,2.90
2018-02-05T00:48:08.611Z,2.90
2018-02-05T00:50:37.715Z,2.90
2018-02-05T00:53:06.084Z,2.90
2018-02-05T00:55:35.147Z,2.90
2018-02-05T00:58:03.571Z,2.90
2018-02-05T01:00:31.948Z,2.90
2018-02-05T01:03:00.321Z,2.90
2018-02-05T01:05:29.395Z,3.00
2018-02-05T01:07:58.535Z,3.00
2018-02-05T01:10:26.848Z,3.00
2018-02-05T01:12:55.163Z,3.10
2018-02-05T01:15:23.495Z,3.10
2018-02-05T01:17:51.833Z,3.10
2018-02-05T01:20:20.143Z,3.10
2018-02-05T01:22:48.489Z,3.00
2018-02-05T01:25:16.827Z,3.00
2018-02-05T01:27:45.207Z,3.00
2018-02-05T01:30:14.335Z,3.00
2018-02-05T01:32:42.647Z,2.90
2018-02-05T01:35:10.979Z,3.00
2018-02-05T01:37:39.346Z,2.90
2018-02-05T01:40:08.429Z,2.90
2018-02-05T01:42:36.724Z,2.80
2018-02-05T01:45:05.828Z,2.90
2018-02-05T01:47:34.183Z,2.80
2018-02-05T01:50:03.298Z,2.90
2018-02-05T01:52:31.618Z,2.90
2018-02-05T01:54:59.923Z,3.00
2018-02-05T01:57:28.427Z,3.00
2018-02-05T01:59:57.501Z,3.00
2018-02-05T02:02:26.614Z,3.00
2018-02-05T02:04:55.746Z,3.00
2018-02-05T02:07:24.051Z,2.90
2018-02-05T02:09:52.355Z,2.90
2018-02-05T02:12:21.436Z,2.90
2018-02-05T02:14:49.752Z,2.90
2018-02-05T02:17:18.075Z,3.00
2018-02-05T02:19:46.413Z,3.00
2018-02-05T02:24:50.306Z,3.00
2018-02-05T02:27:19.500Z,3.00
2018-02-05T02:29:48.568Z,3.00
2018-02-05T02:32:16.931Z,2.90
2018-02-05T02:34:45.239Z,3.00
2018-02-05T02:37:14.365Z,2.90
2018-02-05T02:39:42.723Z,2.80
2018-02-05T02:42:11.044Z,2.90
2018-02-05T02:44:39.482Z,2.90
2018-02-05T02:47:07.804Z,2.90
2018-02-05T02:49:36.196Z,2.90
2018-02-05T02:52:04.495Z,2.80
2018-02-05T02:54:33.651Z,2.80
2018-02-05T02:57:01.958Z,2.80
2018-02-05T02:59:30.255Z,2.80
2018-02-05T03:01:59.361Z,2.80
2018-02-05T03:04:27.674Z,2.80
2018-02-05T03:06:56.060Z,2.80
2018-02-05T03:09:24.392Z,2.70
2018-02-05T03:11:52.713Z,2.70
2018-02-05T03:14:21.044Z,2.70
2018-02-05T03:16:50.113Z,2.70
2018-02-05T03:19:18.439Z,2.60
2018-02-05T03:21:52.698Z,2.60
2018-02-05T03:24:21.007Z,2.70
2018-02-05T03:26:49.335Z,2.70
2018-02-05T03:29:17.648Z,2.60
2018-02-05T03:31:46.965Z,2.70
2018-02-05T03:34:15.281Z,2.60
2018-02-05T03:36:43.591Z,2.70
2018-02-05T03:39:12.689Z,2.70
2018-02-05T03:41:40.997Z,2.70
2018-02-05T03:44:09.467Z,2.70
2018-02-05T03:46:37.847Z,2.60
2018-02-05T03:49:06.191Z,2.60
2018-02-05T03:51:34.551Z,2.60
2018-02-05T03:54:02.869Z,2.60
2018-02-05T03:56:31.931Z,2.50
2018-02-05T03:59:00.287Z,2.40
2018-02-05T04:01:28.610Z,2.50
2018-02-05T04:03:57.081Z,2.40
2018-02-05T04:06:25.417Z,2.40
2018-02-05T04:08:53.732Z,2.30
2018-02-05T04:11:22.057Z,2.30
2018-02-05T04:13:50.370Z,2.30
2018-02-05T04:16:19.507Z,2.40
2018-02-05T04:18:47.818Z,2.30
2018-02-05T04:21:16.135Z,2.40
2018-02-05T04:23:44.738Z,2.30
2018-02-05T04:26:13.075Z,2.30
2018-02-05T04:28:41.411Z,2.40
2018-02-05T04:31:09.722Z,2.30
2018-02-05T04:33:38.045Z,2.40
2018-02-05T04:36:07.471Z,2.40
2018-02-05T04:38:35.826Z,2.30
2018-02-05T04:41:04.927Z,2.40
2018-02-05T04:43:34.125Z,2.30
2018-02-05T04:46:02.456Z,2.30
2018-02-05T04:48:30.847Z,2.30
2018-02-05T04:51:01.202Z,2.20
2018-02-05T04:53:30.287Z,2.20
2018-02-05T04:55:58.619Z,2.10
2018-02-05T04:58:27.028Z,2.10
2018-02-05T05:13:50.198Z,2.70
2018-02-05T05:16:18.504Z,2.60
2018-02-05T05:18:46.806Z,2.40
2018-02-05T05:21:15.138Z,2.30
2018-02-05T05:23:43.459Z,2.10
2018-02-05T05:26:11.775Z,2.10
2018-02-05T05:28:40.846Z,2.00
2018-02-05T05:31:09.221Z,2.00
2018-02-05T05:33:38.316Z,2.00
2018-02-05T05:36:06.618Z,2.00
2018-02-05T05:38:34.968Z,2.00
2018-02-05T05:41:04.055Z,2.00
2018-02-05T05:43:32.385Z,1.90
2018-02-05T05:46:00.700Z,1.90
2018-02-05T05:48:29.007Z,1.90
2018-02-05T05:50:57.394Z,1.80
2018-02-05T05:53:26.478Z,1.80
2018-02-05T05:55:55.591Z,1.70
2018-02-05T05:58:23.959Z,1.70
2018-02-05T06:00:52.272Z,1.60
2018-02-05T06:03:20.591Z,1.60
2018-02-05T06:05:48.914Z,1.60
2018-02-05T06:08:17.251Z,1.60
2018-02-05T06:10:46.380Z,1.60
2018-02-05T06:13:14.719Z,1.60
2018-02-05T06:15:43.827Z,1.60
2018-02-05T06:18:12.159Z,1.50
2018-02-05T06:20:40.478Z,1.60
2018-02-05T06:23:09.582Z,1.40
2018-02-05T06:25:37.951Z,1.40
2018-02-05T06:28:07.035Z,1.40
2018-02-05T06:30:36.155Z,1.30
2018-02-05T06:33:04.467Z,1.30
2018-02-05T06:35:32.767Z,1.40
2018-02-05T06:38:01.116Z,1.30
2018-02-05T06:40:29.418Z,1.30
2018-02-05T06:42:57.739Z,1.30
2018-02-05T06:45:26.102Z,1.40
2018-02-05T06:47:55.187Z,1.40
2018-02-05T06:50:35.307Z,1.40
2018-02-05T06:53:15.440Z,1.40
2018-02-05T06:55:47.591Z,1.30
2018-02-05T06:58:15.947Z,1.30
2018-02-05T07:00:45.036Z,1.20
2018-02-05T07:03:13.343Z,1.20
2018-02-05T07:05:41.667Z,1.30
2018-02-05T07:08:10.882Z,1.30
2018-02-05T07:10:39.200Z,1.30
2018-02-05T07:13:07.527Z,1.40
2018-02-05T07:15:35.848Z,1.40
2018-02-05T07:18:04.511Z,1.40
2018-02-05T07:20:33.585Z,1.50
2018-02-05T07:23:01.923Z,1.40
2018-02-05T07:25:30.235Z,1.50
2018-02-05T07:27:59.370Z,1.50
2018-02-05T07:30:28.436Z,1.50
2018-02-05T07:32:56.751Z,1.50
2018-02-05T07:35:25.111Z,1.50
2018-02-05T07:37:54.217Z,1.50
2018-02-05T07:40:22.523Z,1.40
2018-02-05T07:42:50.827Z,1.50
2018-02-05T07:45:19.155Z,1.50
2018-02-05T07:47:47.458Z,1.60
2018-02-05T07:50:15.986Z,1.60
2018-02-05T07:52:45.063Z,1.70
2018-02-05T07:55:14.168Z,1.70
2018-02-05T07:57:43.279Z,1.70
2018-02-05T08:00:11.635Z,1.60
2018-02-05T08:02:39.939Z,1.70
2018-02-05T08:05:08.238Z,1.70
2018-02-05T08:07:36.565Z,1.80
2018-02-05T08:10:04.891Z,1.90
2018-02-05T08:12:33.256Z,2.00
2018-02-05T08:15:01.591Z,2.20
2018-02-05T08:17:30.711Z,2.40
2018-02-05T08:19:59.064Z,2.40
2018-02-05T08:22:27.399Z,2.40
2018-02-05T08:24:55.763Z,2.50
2018-02-05T08:27:24.108Z,2.50
2018-02-05T08:29:52.435Z,2.50
2018-02-05T08:32:20.791Z,2.50
2018-02-05T08:34:49.120Z,2.50
2018-02-05T08:37:17.435Z,2.40
2018-02-05T08:39:45.758Z,2.30
2018-02-05T08:42:14.295Z,2.20
2018-02-05T08:44:43.355Z,2.00
2018-02-05T08:47:13.335Z,1.90
2018-02-05T08:49:41.640Z,1.90
2018-02-05T08:52:10.193Z,1.80
2018-02-05T08:54:38.516Z,1.70
2018-02-05T08:57:07.602Z,1.80
2018-02-05T08:59:35.919Z,1.80
2018-02-05T09:02:04.255Z,1.90
2018-02-05T09:04:32.587Z,1.90
2018-02-05T09:07:00.905Z,1.90
2018-02-05T09:09:29.232Z,2.00
2018-02-05T09:11:57.552Z,1.90
2018-02-05T09:14:26.075Z,2.00
2018-02-05T09:16:54.391Z,2.00
2018-02-05T09:19:22.697Z,2.20
2018-02-05T09:21:51.215Z,2.20
2018-02-05T09:24:19.522Z,2.30
2018-02-05T09:26:47.836Z,2.50
2018-02-05T09:29:16.939Z,2.70
2018-02-05T09:31:45.267Z,2.70
2018-02-05T09:34:13.622Z,2.80
2018-02-05T09:36:41.932Z,2.80
2018-02-05T09:39:10.240Z,2.70
2018-02-05T09:41:39.355Z,3.00
2018-02-05T09:44:07.667Z,2.90
2018-02-05T09:46:35.989Z,3.10
2018-02-05T09:49:04.389Z,3.10
2018-02-05T09:51:32.708Z,3.30
2018-02-05T09:54:01.051Z,3.40
2018-02-05T09:56:29.378Z,3.50
2018-02-05T09:58:57.726Z,3.60
2018-02-05T10:01:26.068Z,3.70
2018-02-05T10:03:55.569Z,3.90
2018-02-05T10:06:31.120Z,4.00
2018-02-05T10:09:05.469Z,3.90
2018-02-05T10:11:33.796Z,3.90
2018-02-05T10:14:02.887Z,3.70
2018-02-05T10:16:31.542Z,3.70
2018-02-05T10:18:59.866Z,3.80
2018-02-05T10:21:28.943Z,3.80
2018-02-05T10:23:57.275Z,3.80
2018-02-05T10:26:25.583Z,3.80
2018-02-05T10:28:53.951Z,3.90
2018-02-05T10:31:22.272Z,3.90
2018-02-05T10:33:50.607Z,3.90
2018-02-05T10:36:18.927Z,3.90
2018-02-05T10:38:47.276Z,4.10
2018-02-05T10:41:17.091Z,4.10
2018-02-05T10:43:45.451Z,4.10
2018-02-05T10:46:13.756Z,4.20
2018-02-05T10:48:42.887Z,4.20
2018-02-05T10:51:11.538Z,4.10
2018-02-05T10:53:39.902Z,4.10
2018-02-05T10:56:08.243Z,4.10
2018-02-05T10:58:36.552Z,4.20
2018-02-05T11:01:04.879Z,4.30
2018-02-05T11:03:33.228Z,4.30
2018-02-05T11:06:02.539Z,4.30
2018-02-05T11:08:31.607Z,4.40
2018-02-05T11:10:59.936Z,4.40
2018-02-05T11:13:28.247Z,4.50
2018-02-05T11:15:57.355Z,4.80
2018-02-05T11:18:26.452Z,4.80
2018-02-05T11:20:54.822Z,4.80
2018-02-05T11:23:23.136Z,4.80
2018-02-05T11:25:51.439Z,4.80
2018-02-05T11:28:19.760Z,4.70
2018-02-05T11:30:48.067Z,4.70
2018-02-05T11:33:16.404Z,4.40
2018-02-05T11:35:44.721Z,4.40
2018-02-05T11:38:13.055Z,4.30
2018-02-05T11:40:41.395Z,4.20
2018-02-05T11:43:09.744Z,4.10
2018-02-05T11:45:38.106Z,4.00
2018-02-05T11:48:06.449Z,3.90
2018-02-05T11:50:34.747Z,3.80
2018-02-05T11:53:03.099Z,3.90
2018-02-05T11:55:31.454Z,3.90
2018-02-05T11:57:59.888Z,3.90
2018-02-05T12:00:28.995Z,3.80
2018-02-05T12:02:58.086Z,4.00
2018-02-05T12:05:27.199Z,4.20
2018-02-05T12:07:55.515Z,4.10
2018-02-05T12:10:23.827Z,4.30
2018-02-05T12:12:53.786Z,4.40
2018-02-05T12:15:22.111Z,4.40
2018-02-05T12:17:50.490Z,4.50
2018-02-05T12:20:18.799Z,4.60
2018-02-05T12:22:47.141Z,4.60
2018-02-05T12:25:16.341Z,4.80
2018-02-05T12:27:44.672Z,4.80
2018-02-05T12:30:12.987Z,4.90
2018-02-05T12:32:41.275Z,4.90
2018-02-05T12:35:10.392Z,4.80
2018-02-05T12:37:39.462Z,4.80
2018-02-05T12:40:08.563Z,4.70
2018-02-05T12:42:37.660Z,4.70
2018-02-05T12:45:06.735Z,4.70
2018-02-05T12:47:35.068Z,4.70
2018-02-05T12:50:03.428Z,4.60
2018-02-05T12:52:31.773Z,4.50
2018-02-05T12:55:00.131Z,4.40
2018-02-05T12:57:29.239Z,4.40
2018-02-05T13:00:03.191Z,4.40
2018-02-05T13:15:57.118Z,4.10
2018-02-05T13:18:25.451Z,4.10
2018-02-05T13:20:53.798Z,4.00
2018-02-05T13:23:22.103Z,3.90
2018-02-05T13:25:50.416Z,3.80
2018-02-05T13:28:19.024Z,3.80
2018-02-05T13:30:47.359Z,3.90
2018-02-05T13:33:15.683Z,3.90
2018-02-05T13:35:44.752Z,4.10
2018-02-05T13:38:13.983Z,4.20
2018-02-05T13:40:43.047Z,4.30
2018-02-05T13:43:12.462Z,4.30
2018-02-05T13:45:41.548Z,4.20
2018-02-05T13:48:09.883Z,4.10
2018-02-05T13:50:38.244Z,4.10
2018-02-05T13:53:06.587Z,4.10
2018-02-05T13:55:35.682Z,4.20
2018-02-05T13:58:04.778Z,4.30
2018-02-05T14:00:33.923Z,4.40
2018-02-05T14:03:02.247Z,4.30
2018-02-05T14:05:30.543Z,4.30
2018-02-05T14:07:58.921Z,4.40
2018-02-05T14:10:27.991Z,4.30
2018-02-05T14:12:57.099Z,4.20
2018-02-05T14:15:26.182Z,4.00
2018-02-05T14:17:55.291Z,3.80
2018-02-05T14:20:23.635Z,3.70
2018-02-05T14:22:51.955Z,3.70
2018-02-05T14:25:20.284Z,3.60
2018-02-05T14:27:48.599Z,3.50
2018-02-05T14:30:16.927Z,3.50
2018-02-05T14:32:45.244Z,3.40
2018-02-05T14:35:14.447Z,3.40
2018-02-05T14:37:43.532Z,3.40
2018-02-05T14:40:12.634Z,3.40
2018-02-05T14:42:41.733Z,3.40
2018-02-05T14:45:10.080Z,3.40
2018-02-05T14:47:38.424Z,3.40
2018-02-05T14:50:06.767Z,3.40
2018-02-05T14:52:35.135Z,3.40
2018-02-05T14:55:04.214Z,3.50
2018-02-05T14:57:32.616Z,3.40
2018-02-05T15:00:01.692Z,3.30
2018-02-05T15:02:30.035Z,3.30
2018-02-05T15:04:58.336Z,3.30
2018-02-05T15:07:26.646Z,3.20
2018-02-05T15:09:55.048Z,3.20
2018-02-05T15:12:23.371Z,3.20
2018-02-05T15:14:51.701Z,3.20
2018-02-05T15:17:20.032Z,3.20
2018-02-05T15:19:49.148Z,3.10
2018-02-05T15:22:18.227Z,3.00
2018-02-05T15:24:46.604Z,3.00
2018-02-05T15:27:15.034Z,3.10
2018-02-05T15:29:43.360Z,3.10
2018-02-05T15:32:11.679Z,3.00
2018-02-05T15:34:40.020Z,3.00
2018-02-05T15:37:08.356Z,3.00
2018-02-05T15:39:36.727Z,2.90
2018-02-05T15:42:05.074Z,2.90
2018-02-05T15:44:33.421Z,2.90
2018-02-05T15:47:01.727Z,2.90
2018-02-05T15:49:30.048Z,2.90
2018-02-05T15:51:58.403Z,2.90
2018-02-05T15:54:26.735Z,2.90
2018-02-05T15:56:55.841Z,2.80
2018-02-05T15:59:24.919Z,2.80
2018-02-05T16:01:54.027Z,2.80
2018-02-05T16:04:23.107Z,2.80
2018-02-05T16:06:51.398Z,2.80
2018-02-05T16:09:20.491Z,2.60
2018-02-05T16:11:49.589Z,2.60
2018-02-05T16:14:17.934Z,2.60
2018-02-05T16:16:46.241Z,2.60
2018-02-05T16:19:15.324Z,2.40
2018-02-05T16:21:43.656Z,2.30
2018-02-05T16:24:11.991Z,2.30
2018-02-05T16:26:41.060Z,2.30
2018-02-05T16:29:09.399Z,2.20
2018-02-05T16:31:37.761Z,2.30
2018-02-05T16:34:06.070Z,2.40
2018-02-05T16:36:34.401Z,2.40
2018-02-05T16:39:02.735Z,2.40
2018-02-05T16:41:31.069Z,2.40
2018-02-05T16:43:59.416Z,2.30
2018-02-05T16:46:28.533Z,2.30
2018-02-05T16:48:56.863Z,2.20
2018-02-05T16:51:25.227Z,2.20
2018-02-05T16:53:53.558Z,2.20
2018-02-05T16:56:21.875Z,2.20
2018-02-05T16:58:50.247Z,2.20
2018-02-05T17:01:19.486Z,2.10
2018-02-05T17:03:48.568Z,2.10
2018-02-05T17:06:17.691Z,2.00
2018-02-05T17:08:46.063Z,1.90
2018-02-05T17:11:14.407Z,1.90
2018-02-05T17:13:42.724Z,2.00
2018-02-05T17:16:11.844Z,1.90
2018-02-05T17:18:40.178Z,1.80
2018-02-05T17:21:08.682Z,1.90
2018-02-05T17:23:36.995Z,1.80
2018-02-05T17:26:05.319Z,1.90
2018-02-05T17:28:34.414Z,1.90
2018-02-05T17:31:02.747Z,1.80
2018-02-05T17:33:31.090Z,1.80
2018-02-05T17:36:00.199Z,1.80
2018-02-05T17:38:28.516Z,1.80
2018-02-05T17:40:56.840Z,1.90
2018-02-05T17:43:25.226Z,1.90
2018-02-05T17:45:53.545Z,1.80
2018-02-05T17:48:22.224Z,1.80
2018-02-05T17:50:50.675Z,1.80
2018-02-05T17:53:18.996Z,1.80
2018-02-05T17:55:48.839Z,1.70
2018-02-05T17:58:17.196Z,1.70
2018-02-05T18:00:45.520Z,1.70
2018-02-05T18:03:13.894Z,1.60
2018-02-05T18:05:42.231Z,1.50
2018-02-05T18:08:10.548Z,1.40
2018-02-05T18:10:38.883Z,1.40
2018-02-05T18:13:07.191Z,1.30
2018-02-05T18:15:35.500Z,1.30
2018-02-05T18:18:03.848Z,1.30
2018-02-05T18:20:33.071Z,1.20
2018-02-05T18:23:03.351Z,1.10
2018-02-05T18:25:31.692Z,1.00
2018-02-05T18:28:00.031Z,1.00
2018-02-05T18:30:28.347Z,1.00
2018-02-05T18:32:56.659Z,0.90
2018-02-05T18:35:25.770Z,0.80
2018-02-05T18:37:54.094Z,0.80
2018-02-05T18:40:22.414Z,0.80
2018-02-05T18:42:50.890Z,0.80
2018-02-05T18:45:19.212Z,0.80
2018-02-05T18:47:47.523Z,0.70
2018-02-05T18:50:16.621Z,0.70
2018-02-05T18:52:44.972Z,0.60
2018-02-05T18:55:13.287Z,0.70
2018-02-05T18:57:43.449Z,0.70
2018-02-05T19:00:23.706Z,0.60
2018-02-05T19:02:52.052Z,0.60
2018-02-05T19:05:20.371Z,0.60
2018-02-05T19:07:48.707Z,0.50
2018-02-05T19:10:17.127Z,0.50
2018-02-05T19:12:45.471Z,0.50
2018-02-05T19:15:13.839Z,0.50
2018-02-05T19:17:42.219Z,0.50
2018-02-05T19:20:10.564Z,0.40
2018-02-05T19:22:38.914Z,0.40
2018-02-05T19:25:07.213Z,0.30
2018-02-05T19:27:35.548Z,0.30
2018-02-05T19:30:05.622Z,0.30
2018-02-05T19:32:35.377Z,0.20
2018-02-05T19:35:03.788Z,0.20
2018-02-05T19:37:32.112Z,0.20
2018-02-05T19:40:00.499Z,0.10
2018-02-05T19:42:29.301Z,0.10
2018-02-05T19:44:58.402Z,0.10
2018-02-05T19:47:27.228Z,0.00
2018-02-05T19:49:55.718Z,0.00
2018-02-05T19:52:24.641Z,0.00
2018-02-05T19:54:53.372Z,0.00
2018-02-05T19:57:21.763Z,0.00
2018-02-05T19:59:50.947Z,0.00
2018-02-05T20:02:19.294Z,-0.10
2018-02-05T20:04:48.090Z,-0.10
2018-02-05T20:07:16.634Z,-0.10
2018-02-05T20:09:45.016Z,-0.10
2018-02-05T20:12:14.379Z,-0.20
2018-02-05T20:14:43.107Z,-0.30
2018-02-05T20:17:11.680Z,-0.20
2018-02-05T20:19:40.570Z,-0.30
2018-02-05T20:22:08.969Z,-0.30
2018-02-05T20:24:37.579Z,-0.30
2018-02-05T20:27:06.014Z,-0.30
2018-02-05T20:29:35.119Z,-0.40
2018-02-05T20:32:03.451Z,-0.40
2018-02-05T20:34:31.795Z,-0.40
2018-02-05T20:37:00.147Z,-0.40
2018-02-05T20:39:29.319Z,-0.40
2018-02-05T20:41:58.442Z,-0.50
2018-02-05T20:44:26.773Z,-0.50
2018-02-05T20:46:55.087Z,-0.40
2018-02-05T20:49:23.551Z,-0.40
2018-02-05T20:51:51.883Z,-0.40
2018-02-05T20:54:20.422Z,-0.40
2018-02-05T20:56:49.410Z,-0.40
2018-02-05T20:59:18.095Z,-0.40
2018-02-05T21:01:47.260Z,-0.40
2018-02-05T21:04:15.551Z,-0.40
2018-02-05T21:06:43.853Z,-0.40
2018-02-05T21:09:12.206Z,-0.30
2018-02-05T21:11:41.305Z,-0.30
2018-02-05T21:14:09.623Z,-0.40
2018-02-05T21:16:37.955Z,-0.30
2018-02-05T21:19:06.316Z,-0.30
2018-02-05T21:21:35.509Z,-0.20
2018-02-05T21:24:03.866Z,-0.30
2018-02-05T21:26:32.222Z,-0.20
2018-02-05T21:29:00.535Z,-0.20
2018-02-05T21:31:28.867Z,-0.20
2018-02-05T21:33:57.188Z,-0.20
2018-02-05T21:36:25.520Z,-0.20
2018-02-05T21:38:53.880Z,-0.20
2018-02-05T21:41:22.309Z,-0.20
2018-02-05T21:43:50.660Z,-0.20
2018-02-05T21:46:19.080Z,-0.20
2018-02-05T21:48:47.464Z,-0.20
2018-02-05T21:51:15.787Z,-0.30
2018-02-05T21:53:44.123Z,-0.30
2018-02-05T21:56:12.591Z,-0.40
2018-02-05T21:58:40.987Z,-0.40
2018-02-05T22:01:09.334Z,-0.50
2018-02-05T22:03:37.644Z,-0.50
2018-02-05T22:06:05.960Z,-0.60
2018-02-05T22:08:34.366Z,-0.60
2018-02-05T22:11:02.718Z,-0.60
2018-02-05T22:13:31.099Z,-0.70
2018-02-05T22:15:59.494Z,-0.70
2018-02-05T22:18:27.944Z,-0.80
2018-02-05T22:20:56.281Z,-0.80
2018-02-05T22:23:24.689Z,-0.80
2018-02-05T22:25:53.057Z,-0.90
2018-02-05T22:28:22.171Z,-0.90
2018-02-05T22:30:50.574Z,-1.00
2018-02-05T22:33:20.131Z,-0.90
2018-02-05T22:35:48.431Z,-1.00
2018-02-05T22:38:17.299Z,-1.00
2018-02-05T22:40:45.755Z,-1.00
2018-02-05T22:43:14.107Z,-1.00
2018-02-05T22:45:42.477Z,-1.00
2018-02-05T22:48:10.857Z,-1.10
2018-02-05T22:50:39.216Z,-1.10
2018-02-05T22:53:07.594Z,-1.10
2018-02-05T22:55:35.919Z,-1.10
2018-02-05T22:58:04.255Z,-1.10
2018-02-05T23:00:33.002Z,-1.20
2018-02-05T23:03:01.503Z,-1.20
2018-02-05T23:05:30.601Z,-1.20
2018-02-05T23:07:59.703Z,-1.20
2018-02-05T23:10:28.023Z,-1.30
2018-02-05T23:12:56.429Z,-1.20
2018-02-05T23:15:24.745Z,-1.20
2018-02-05T23:17:53.843Z,-1.30
2018-02-05T23:20:22.177Z,-1.30
2018-02-05T23:22:50.594Z,-1.40
2018-02-05T23:25:18.941Z,-1.30
2018-02-05T23:27:48.040Z,-1.40
2018-02-05T23:30:17.164Z,-1.40
2018-02-05T23:32:45.528Z,-1.40
2018-02-05T23:35:13.864Z,-1.40
2018-02-05T23:37:42.302Z,-1.40
2018-02-05T23:40:10.631Z,-1.40
2018-02-05T23:42:38.975Z,-1.40
2018-02-05T23:45:07.300Z,-1.40
2018-02-05T23:47:36.707Z,-1.40
2018-02-05T23:50:05.807Z,-1.50
2018-02-05T23:52:34.129Z,-1.50
2018-02-05T23:55:02.475Z,-1.50
2018-02-05T23:57:30.795Z,-1.50
2018-02-05T23:59:59.107Z,-1.50
